sensor_id;sensor_type;location;lat;lon;timestamp;pressure;altitude;pressure_sealevel;temperature;humidity
4745;BME280;2386;42.138;24.746;2022-12-20T00:02:07;101916.44;;;3.08;78.07
4745;BME280;2386;42.138;24.746;2022-12-20T00:04:32;101912.38;;;2.93;77.99
4745;BME280;2386;42.138;24.746;2022-12-20T00:06:58;101908.59;;;2.95;79.20
4745;BME280;2386;42.138;24.746;2022-12-20T00:09:23;101914.31;;;2.91;78.10
4745;BME280;2386;42.138;24.746;2022-12-20T00:11:49;101913.59;;;2.89;78.54
4745;BME280;2386;42.138;24.746;2022-12-20T00:14:15;101920.91;;;2.76;79.75
4745;BME280;2386;42.138;24.746;2022-12-20T00:16:41;101914.09;;;2.72;80.30
4745;BME280;2386;42.138;24.746;2022-12-20T00:19:06;101916.31;;;2.67;81.66
4745;BME280;2386;42.138;24.746;2022-12-20T00:21:33;101898.28;;;2.46;82.08
4745;BME280;2386;42.138;24.746;2022-12-20T00:23:59;101907.78;;;2.61;82.70
4745;BME280;2386;42.138;24.746;2022-12-20T00:29:46;101911.69;;;2.57;81.96
4745;BME280;2386;42.138;24.746;2022-12-20T00:32:11;101910.22;;;2.53;81.66
4745;BME280;2386;42.138;24.746;2022-12-20T00:34:37;101896.81;;;2.53;81.65
4745;BME280;2386;42.138;24.746;2022-12-20T00:37:02;101903.88;;;2.43;82.88
4745;BME280;2386;42.138;24.746;2022-12-20T00:39:28;101912.66;;;2.45;82.57
4745;BME280;2386;42.138;24.746;2022-12-20T00:45:15;101916.53;;;2.41;84.40
4745;BME280;2386;42.138;24.746;2022-12-20T00:47:40;101905.81;;;2.30;85.41
4745;BME280;2386;42.138;24.746;2022-12-20T00:50:06;101909.97;;;2.45;85.16
4745;BME280;2386;42.138;24.746;2022-12-20T00:52:31;101906.81;;;2.29;86.02
4745;BME280;2386;42.138;24.746;2022-12-20T00:54:57;101904.38;;;2.26;88.41
4745;BME280;2386;42.138;24.746;2022-12-20T00:57:22;101902.06;;;2.55;86.65
4745;BME280;2386;42.138;24.746;2022-12-20T00:59:48;101886.84;;;2.55;85.92
4745;BME280;2386;42.138;24.746;2022-12-20T01:02:13;101897.31;;;2.47;87.67
4745;BME280;2386;42.138;24.746;2022-12-20T01:04:38;101888.28;;;2.59;86.89
4745;BME280;2386;42.138;24.746;2022-12-20T01:07:04;101891.34;;;2.55;87.84
4745;BME280;2386;42.138;24.746;2022-12-20T01:09:30;101884.91;;;2.46;88.27
4745;BME280;2386;42.138;24.746;2022-12-20T01:11:56;101887.94;;;2.08;92.36
4745;BME280;2386;42.138;24.746;2022-12-20T01:14:21;101883.44;;;2.09;93.02
4745;BME280;2386;42.138;24.746;2022-12-20T01:16:47;101894.88;;;2.11;94.43
4745;BME280;2386;42.138;24.746;2022-12-20T01:19:14;101876.63;;;2.05;93.27
4745;BME280;2386;42.138;24.746;2022-12-20T01:21:40;101882.84;;;2.16;93.38
4745;BME280;2386;42.138;24.746;2022-12-20T01:24:12;101887.81;;;2.10;95.19
4745;BME280;2386;42.138;24.746;2022-12-20T01:26:38;101863.00;;;1.96;94.31
4745;BME280;2386;42.138;24.746;2022-12-20T01:29:03;101854.72;;;1.88;96.29
4745;BME280;2386;42.138;24.746;2022-12-20T01:31:29;101868.69;;;1.92;95.29
4745;BME280;2386;42.138;24.746;2022-12-20T01:33:54;101854.19;;;1.72;95.96
4745;BME280;2386;42.138;24.746;2022-12-20T01:36:23;101851.91;;;1.90;96.03
4745;BME280;2386;42.138;24.746;2022-12-20T01:38:49;101847.19;;;1.93;92.98
4745;BME280;2386;42.138;24.746;2022-12-20T01:41:20;101842.78;;;1.81;96.67
4745;BME280;2386;42.138;24.746;2022-12-20T01:43:54;101845.69;;;1.78;95.70
4745;BME280;2386;42.138;24.746;2022-12-20T01:46:23;101845.44;;;1.70;97.21
4745;BME280;2386;42.138;24.746;2022-12-20T01:51:17;101841.56;;;1.74;96.68
4745;BME280;2386;42.138;24.746;2022-12-20T01:53:44;101838.63;;;1.66;97.79
4745;BME280;2386;42.138;24.746;2022-12-20T01:56:10;101843.13;;;1.77;96.63
4745;BME280;2386;42.138;24.746;2022-12-20T01:58:37;101833.25;;;1.55;96.43
4745;BME280;2386;42.138;24.746;2022-12-20T02:01:03;101828.84;;;1.54;97.52
4745;BME280;2386;42.138;24.746;2022-12-20T02:03:30;101839.44;;;1.55;97.83
4745;BME280;2386;42.138;24.746;2022-12-20T02:05:56;101831.25;;;1.35;98.73
4745;BME280;2386;42.138;24.746;2022-12-20T02:08:22;101824.59;;;1.40;99.04
4745;BME280;2386;42.138;24.746;2022-12-20T02:13:26;101821.31;;;1.37;98.96
4745;BME280;2386;42.138;24.746;2022-12-20T02:15:56;101817.03;;;1.34;98.80
4745;BME280;2386;42.138;24.746;2022-12-20T02:18:36;101814.72;;;1.29;98.71
4745;BME280;2386;42.138;24.746;2022-12-20T02:30:09;101814.25;;;1.36;97.41
4745;BME280;2386;42.138;24.746;2022-12-20T02:35:12;101828.34;;;1.38;98.19
4745;BME280;2386;42.138;24.746;2022-12-20T02:37:54;101827.69;;;1.23;97.69
4745;BME280;2386;42.138;24.746;2022-12-20T02:40:24;101825.25;;;1.20;98.24
4745;BME280;2386;42.138;24.746;2022-12-20T02:42:54;101820.66;;;1.22;97.39
4745;BME280;2386;42.138;24.746;2022-12-20T02:45:23;101812.47;;;1.12;98.28
4745;BME280;2386;42.138;24.746;2022-12-20T02:48:10;101807.34;;;1.09;98.83
4745;BME280;2386;42.138;24.746;2022-12-20T02:50:42;101820.53;;;1.23;97.85
4745;BME280;2386;42.138;24.746;2022-12-20T02:53:10;101821.56;;;1.45;96.55
4745;BME280;2386;42.138;24.746;2022-12-20T02:55:51;101817.41;;;1.29;97.59
4745;BME280;2386;42.138;24.746;2022-12-20T03:01:26;101810.63;;;1.37;97.26
4745;BME280;2386;42.138;24.746;2022-12-20T03:03:54;101804.06;;;1.52;95.54
4745;BME280;2386;42.138;24.746;2022-12-20T03:09:52;101813.56;;;1.45;96.12
4745;BME280;2386;42.138;24.746;2022-12-20T03:12:18;101797.28;;;1.70;95.19
4745;BME280;2386;42.138;24.746;2022-12-20T03:14:43;101790.47;;;1.66;93.02
4745;BME280;2386;42.138;24.746;2022-12-20T03:17:09;101806.41;;;1.79;92.14
4745;BME280;2386;42.138;24.746;2022-12-20T03:19:35;101801.81;;;1.92;91.17
4745;BME280;2386;42.138;24.746;2022-12-20T03:25:22;101786.09;;;1.76;90.15
4745;BME280;2386;42.138;24.746;2022-12-20T03:27:47;101793.28;;;1.87;90.14
4745;BME280;2386;42.138;24.746;2022-12-20T03:30:13;101797.66;;;1.77;90.71
4745;BME280;2386;42.138;24.746;2022-12-20T03:32:38;101806.78;;;1.74;91.68
4745;BME280;2386;42.138;24.746;2022-12-20T03:35:04;101799.97;;;1.81;91.48
4745;BME280;2386;42.138;24.746;2022-12-20T03:37:30;101809.47;;;2.08;88.11
4745;BME280;2386;42.138;24.746;2022-12-20T03:39:55;101804.13;;;2.08;86.05
4745;BME280;2386;42.138;24.746;2022-12-20T03:42:20;101809.22;;;2.00;86.43
4745;BME280;2386;42.138;24.746;2022-12-20T03:44:46;101802.16;;;1.76;88.05
4745;BME280;2386;42.138;24.746;2022-12-20T03:47:11;101799.13;;;1.81;87.59
4745;BME280;2386;42.138;24.746;2022-12-20T03:49:36;101811.63;;;1.69;88.12
4745;BME280;2386;42.138;24.746;2022-12-20T03:52:02;101812.59;;;1.68;90.50
4745;BME280;2386;42.138;24.746;2022-12-20T03:54:27;101802.13;;;1.54;90.73
4745;BME280;2386;42.138;24.746;2022-12-20T04:00:15;101819.13;;;1.42;92.00
4745;BME280;2386;42.138;24.746;2022-12-20T04:02:40;101817.44;;;1.41;92.61
4745;BME280;2386;42.138;24.746;2022-12-20T04:05:06;101805.00;;;1.28;92.85
4745;BME280;2386;42.138;24.746;2022-12-20T04:08:04;101805.50;;;1.34;94.52
4745;BME280;2386;42.138;24.746;2022-12-20T04:10:29;101800.16;;;1.34;94.56
4745;BME280;2386;42.138;24.746;2022-12-20T04:12:55;101804.50;;;1.23;95.19
4745;BME280;2386;42.138;24.746;2022-12-20T04:15:20;101814.34;;;1.23;96.51
4745;BME280;2386;42.138;24.746;2022-12-20T04:17:45;101806.66;;;1.18;97.89
4745;BME280;2386;42.138;24.746;2022-12-20T04:20:15;101809.59;;;1.26;98.97
4745;BME280;2386;42.138;24.746;2022-12-20T04:22:48;101811.44;;;1.26;99.07
4745;BME280;2386;42.138;24.746;2022-12-20T04:25:15;101812.16;;;1.28;98.52
4745;BME280;2386;42.138;24.746;2022-12-20T04:27:40;101791.88;;;1.25;98.35
4745;BME280;2386;42.138;24.746;2022-12-20T04:30:06;101799.53;;;1.30;98.72
4745;BME280;2386;42.138;24.746;2022-12-20T04:32:32;101805.13;;;1.27;97.20
4745;BME280;2386;42.138;24.746;2022-12-20T04:34:57;101804.72;;;1.20;97.78
4745;BME280;2386;42.138;24.746;2022-12-20T04:37:22;101818.81;;;1.22;96.98
4745;BME280;2386;42.138;24.746;2022-12-20T04:39:48;101810.78;;;1.11;97.64
4745;BME280;2386;42.138;24.746;2022-12-20T04:42:13;101812.56;;;1.35;95.86
4745;BME280;2386;42.138;24.746;2022-12-20T04:44:39;101800.84;;;1.24;95.99
4745;BME280;2386;42.138;24.746;2022-12-20T04:47:04;101799.22;;;1.11;96.21
4745;BME280;2386;42.138;24.746;2022-12-20T04:49:29;101795.19;;;1.05;96.13
4745;BME280;2386;42.138;24.746;2022-12-20T04:51:55;101793.00;;;0.99;96.72
4745;BME280;2386;42.138;24.746;2022-12-20T04:54:40;101792.38;;;0.95;98.33
4745;BME280;2386;42.138;24.746;2022-12-20T04:57:05;101810.16;;;1.08;98.33
4745;BME280;2386;42.138;24.746;2022-12-20T04:59:34;101796.44;;;1.12;98.00
4745;BME280;2386;42.138;24.746;2022-12-20T05:01:59;101814.41;;;1.10;97.36
4745;BME280;2386;42.138;24.746;2022-12-20T05:04:25;101790.31;;;0.99;99.20
4745;BME280;2386;42.138;24.746;2022-12-20T05:06:50;101797.44;;;1.22;99.05
4745;BME280;2386;42.138;24.746;2022-12-20T05:09:15;101797.63;;;1.08;99.65
4745;BME280;2386;42.138;24.746;2022-12-20T05:11:41;101800.94;;;1.12;99.38
4745;BME280;2386;42.138;24.746;2022-12-20T05:14:06;101780.41;;;1.12;99.04
4745;BME280;2386;42.138;24.746;2022-12-20T05:16:31;101778.53;;;1.02;99.77
4745;BME280;2386;42.138;24.746;2022-12-20T05:18:57;101791.28;;;0.98;99.50
4745;BME280;2386;42.138;24.746;2022-12-20T05:21:22;101776.56;;;0.92;100.00
4745;BME280;2386;42.138;24.746;2022-12-20T05:24:08;101780.09;;;0.93;100.00
4745;BME280;2386;42.138;24.746;2022-12-20T05:26:52;101785.19;;;0.96;100.00
4745;BME280;2386;42.138;24.746;2022-12-20T05:29:17;101786.00;;;0.85;98.80
4745;BME280;2386;42.138;24.746;2022-12-20T05:31:43;101786.44;;;1.03;99.46
4745;BME280;2386;42.138;24.746;2022-12-20T05:34:08;101785.44;;;0.93;99.73
4745;BME280;2386;42.138;24.746;2022-12-20T05:36:34;101789.31;;;0.89;100.00
4745;BME280;2386;42.138;24.746;2022-12-20T05:38:59;101776.28;;;0.84;100.00
4745;BME280;2386;42.138;24.746;2022-12-20T05:41:25;101785.72;;;1.01;100.00
4745;BME280;2386;42.138;24.746;2022-12-20T05:43:50;101789.31;;;0.89;100.00
4745;BME280;2386;42.138;24.746;2022-12-20T05:46:16;101773.72;;;0.83;100.00
4745;BME280;2386;42.138;24.746;2022-12-20T05:48:43;101768.31;;;0.95;100.00
4745;BME280;2386;42.138;24.746;2022-12-20T05:54:30;101776.91;;;0.88;100.00
4745;BME280;2386;42.138;24.746;2022-12-20T05:56:55;101790.19;;;1.01;100.00
4745;BME280;2386;42.138;24.746;2022-12-20T05:59:21;101779.47;;;0.89;100.00
4745;BME280;2386;42.138;24.746;2022-12-20T06:05:08;101778.78;;;1.34;100.00
4745;BME280;2386;42.138;24.746;2022-12-20T06:07:33;101795.56;;;1.47;98.83
4745;BME280;2386;42.138;24.746;2022-12-20T06:09:59;101777.56;;;1.49;97.93
4745;BME280;2386;42.138;24.746;2022-12-20T06:15:46;101783.06;;;1.70;95.28
4745;BME280;2386;42.138;24.746;2022-12-20T06:18:13;101795.59;;;1.91;94.10
4745;BME280;2386;42.138;24.746;2022-12-20T06:20:38;101797.06;;;1.95;93.08
4745;BME280;2386;42.138;24.746;2022-12-20T06:23:04;101791.97;;;1.92;93.94
4745;BME280;2386;42.138;24.746;2022-12-20T06:25:30;101801.09;;;2.01;94.52
4745;BME280;2386;42.138;24.746;2022-12-20T06:27:56;101797.56;;;2.12;94.60
4745;BME280;2386;42.138;24.746;2022-12-20T06:30:23;101795.59;;;2.03;95.72
4745;BME280;2386;42.138;24.746;2022-12-20T06:32:50;101805.09;;;1.95;97.70
4745;BME280;2386;42.138;24.746;2022-12-20T06:35:15;101798.53;;;2.00;98.22
4745;BME280;2386;42.138;24.746;2022-12-20T06:37:44;101785.38;;;1.96;97.80
4745;BME280;2386;42.138;24.746;2022-12-20T06:40:11;101798.28;;;2.03;98.22
4745;BME280;2386;42.138;24.746;2022-12-20T06:42:38;101790.25;;;1.91;97.04
4745;BME280;2386;42.138;24.746;2022-12-20T06:45:04;101787.31;;;1.61;98.00
4745;BME280;2386;42.138;24.746;2022-12-20T06:47:31;101782.94;;;1.82;98.27
4745;BME280;2386;42.138;24.746;2022-12-20T06:49:57;101783.66;;;1.62;98.31
4745;BME280;2386;42.138;24.746;2022-12-20T06:55:46;101792.66;;;1.61;98.39
4745;BME280;2386;42.138;24.746;2022-12-20T06:58:14;101785.34;;;1.52;98.25
4745;BME280;2386;42.138;24.746;2022-12-20T07:00:40;101788.53;;;1.68;97.58
4745;BME280;2386;42.138;24.746;2022-12-20T07:03:05;101777.84;;;1.79;96.65
4745;BME280;2386;42.138;24.746;2022-12-20T07:05:30;101786.09;;;1.76;94.93
4745;BME280;2386;42.138;24.746;2022-12-20T07:07:56;101788.38;;;1.58;95.40
4745;BME280;2386;42.138;24.746;2022-12-20T07:10:22;101778.16;;;1.52;95.89
4745;BME280;2386;42.138;24.746;2022-12-20T07:12:47;101779.25;;;1.50;96.47
4745;BME280;2386;42.138;24.746;2022-12-20T07:15:13;101781.72;;;1.75;95.53
4745;BME280;2386;42.138;24.746;2022-12-20T07:17:38;101785.34;;;1.63;94.13
4745;BME280;2386;42.138;24.746;2022-12-20T07:20:04;101779.25;;;1.50;94.65
4745;BME280;2386;42.138;24.746;2022-12-20T07:22:32;101776.38;;;1.64;95.98
4745;BME280;2386;42.138;24.746;2022-12-20T07:24:58;101785.63;;;1.71;95.72
4745;BME280;2386;42.138;24.746;2022-12-20T07:27:24;101771.00;;;1.64;94.51
4745;BME280;2386;42.138;24.746;2022-12-20T07:29:50;101788.19;;;1.95;93.71
4745;BME280;2386;42.138;24.746;2022-12-20T07:32:15;101772.00;;;1.96;92.15
4745;BME280;2386;42.138;24.746;2022-12-20T07:34:40;101762.75;;;1.89;90.95
4745;BME280;2386;42.138;24.746;2022-12-20T07:37:06;101766.41;;;2.00;90.38
4745;BME280;2386;42.138;24.746;2022-12-20T07:39:32;101751.34;;;1.87;89.47
4745;BME280;2386;42.138;24.746;2022-12-20T07:41:58;101763.13;;;2.07;89.37
4745;BME280;2386;42.138;24.746;2022-12-20T07:44:24;101765.31;;;2.13;88.93
4745;BME280;2386;42.138;24.746;2022-12-20T07:46:49;101757.06;;;1.94;88.68
4745;BME280;2386;42.138;24.746;2022-12-20T07:49:16;101753.75;;;1.79;88.92
4745;BME280;2386;42.138;24.746;2022-12-20T07:51:47;101754.84;;;2.10;91.13
4745;BME280;2386;42.138;24.746;2022-12-20T07:54:18;101748.09;;;2.27;90.72
4745;BME280;2386;42.138;24.746;2022-12-20T07:56:49;101750.16;;;2.35;90.44
4745;BME280;2386;42.138;24.746;2022-12-20T07:59:19;101752.72;;;2.36;89.61
4745;BME280;2386;42.138;24.746;2022-12-20T08:01:47;101753.41;;;2.49;89.89
4745;BME280;2386;42.138;24.746;2022-12-20T08:04:19;101739.56;;;2.44;88.67
4745;BME280;2386;42.138;24.746;2022-12-20T08:06:46;101745.06;;;2.31;87.42
4745;BME280;2386;42.138;24.746;2022-12-20T08:09:13;101744.25;;;2.09;87.24
4745;BME280;2386;42.138;24.746;2022-12-20T08:11:43;101747.72;;;2.31;87.37
4745;BME280;2386;42.138;24.746;2022-12-20T08:14:10;101738.84;;;2.31;88.84
4745;BME280;2386;42.138;24.746;2022-12-20T08:16:36;101742.84;;;2.37;87.12
4745;BME280;2386;42.138;24.746;2022-12-20T08:19:02;101743.31;;;2.53;87.69
4745;BME280;2386;42.138;24.746;2022-12-20T08:21:28;101724.75;;;2.61;87.15
4745;BME280;2386;42.138;24.746;2022-12-20T08:23:54;101719.97;;;2.76;85.86
4745;BME280;2386;42.138;24.746;2022-12-20T08:26:20;101715.31;;;2.78;85.64
4745;BME280;2386;42.138;24.746;2022-12-20T08:28:46;101730.09;;;2.72;86.04
4745;BME280;2386;42.138;24.746;2022-12-20T08:31:11;101719.31;;;2.83;85.75
4745;BME280;2386;42.138;24.746;2022-12-20T08:33:37;101727.44;;;2.93;85.31
4745;BME280;2386;42.138;24.746;2022-12-20T08:36:07;101730.38;;;2.90;84.62
4745;BME280;2386;42.138;24.746;2022-12-20T08:38:33;101722.38;;;2.79;85.41
4745;BME280;2386;42.138;24.746;2022-12-20T08:41:10;101712.38;;;3.02;85.27
4745;BME280;2386;42.138;24.746;2022-12-20T08:43:37;101716.63;;;3.04;83.35
4745;BME280;2386;42.138;24.746;2022-12-20T08:46:03;101707.72;;;3.24;83.31
4745;BME280;2386;42.138;24.746;2022-12-20T08:48:28;101703.94;;;3.27;83.53
4745;BME280;2386;42.138;24.746;2022-12-20T08:50:56;101703.28;;;3.35;81.83
4745;BME280;2386;42.138;24.746;2022-12-20T08:53:22;101703.13;;;3.57;81.67
4745;BME280;2386;42.138;24.746;2022-12-20T08:55:47;101692.84;;;3.72;78.84
4745;BME280;2386;42.138;24.746;2022-12-20T08:58:13;101693.56;;;3.64;80.02
4745;BME280;2386;42.138;24.746;2022-12-20T09:00:39;101687.28;;;3.54;79.13
4745;BME280;2386;42.138;24.746;2022-12-20T09:03:06;101680.84;;;3.66;77.88
4745;BME280;2386;42.138;24.746;2022-12-20T09:05:32;101679.78;;;3.48;77.84
4745;BME280;2386;42.138;24.746;2022-12-20T09:07:58;101677.75;;;3.71;77.69
4745;BME280;2386;42.138;24.746;2022-12-20T09:10:24;101672.78;;;3.66;78.91
4745;BME280;2386;42.138;24.746;2022-12-20T09:12:49;101664.63;;;3.68;77.90
4745;BME280;2386;42.138;24.746;2022-12-20T09:15:15;101668.16;;;3.78;77.65
4745;BME280;2386;42.138;24.746;2022-12-20T09:17:40;101661.66;;;3.80;78.34
4745;BME280;2386;42.138;24.746;2022-12-20T09:20:06;101655.16;;;3.83;77.36
4745;BME280;2386;42.138;24.746;2022-12-20T09:22:31;101650.09;;;3.89;78.51
4745;BME280;2386;42.138;24.746;2022-12-20T09:24:57;101645.59;;;3.90;75.86
4745;BME280;2386;42.138;24.746;2022-12-20T09:27:22;101640.81;;;4.03;75.40
4745;BME280;2386;42.138;24.746;2022-12-20T09:29:48;101647.31;;;4.01;73.92
4745;BME280;2386;42.138;24.746;2022-12-20T09:32:13;101636.81;;;3.88;74.05
4745;BME280;2386;42.138;24.746;2022-12-20T09:34:38;101639.53;;;3.97;72.83
4745;BME280;2386;42.138;24.746;2022-12-20T09:37:04;101630.31;;;3.90;74.21
4745;BME280;2386;42.138;24.746;2022-12-20T09:39:29;101614.50;;;3.87;72.90
4745;BME280;2386;42.138;24.746;2022-12-20T09:41:56;101621.00;;;3.94;73.35
4745;BME280;2386;42.138;24.746;2022-12-20T09:44:31;101610.59;;;4.11;73.38
4745;BME280;2386;42.138;24.746;2022-12-20T09:47:19;101620.75;;;4.17;73.32
4745;BME280;2386;42.138;24.746;2022-12-20T09:49:49;101616.53;;;4.24;72.25
4745;BME280;2386;42.138;24.746;2022-12-20T09:58:09;101595.47;;;4.29;70.54
4745;BME280;2386;42.138;24.746;2022-12-20T10:00:45;101585.16;;;4.24;70.13
4745;BME280;2386;42.138;24.746;2022-12-20T10:03:19;101586.56;;;4.28;71.91
4745;BME280;2386;42.138;24.746;2022-12-20T10:05:50;101586.56;;;4.38;73.54
4745;BME280;2386;42.138;24.746;2022-12-20T10:16:55;101571.56;;;4.26;71.94
4745;BME280;2386;42.138;24.746;2022-12-20T10:24:40;101567.19;;;4.44;66.08
4745;BME280;2386;42.138;24.746;2022-12-20T10:29:36;101541.84;;;4.47;67.76
4745;BME280;2386;42.138;24.746;2022-12-20T10:32:13;101541.84;;;4.47;67.77
4745;BME280;2386;42.138;24.746;2022-12-20T10:34:43;101533.06;;;4.54;69.73
4745;BME280;2386;42.138;24.746;2022-12-20T10:37:13;101538.72;;;4.61;70.07
4745;BME280;2386;42.138;24.746;2022-12-20T10:40:00;101520.03;;;4.59;70.44
4745;BME280;2386;42.138;24.746;2022-12-20T10:42:39;101507.59;;;4.58;69.77
4745;BME280;2386;42.138;24.746;2022-12-20T10:47:42;101508.31;;;4.98;68.26
4745;BME280;2386;42.138;24.746;2022-12-20T10:50:20;101500.75;;;5.11;67.91
4745;BME280;2386;42.138;24.746;2022-12-20T10:53:02;101497.22;;;5.10;69.87
4745;BME280;2386;42.138;24.746;2022-12-20T10:55:33;101497.78;;;5.14;67.60
4745;BME280;2386;42.138;24.746;2022-12-20T10:58:04;101481.34;;;5.17;66.46
4745;BME280;2386;42.138;24.746;2022-12-20T11:00:31;101484.34;;;5.32;67.33
4745;BME280;2386;42.138;24.746;2022-12-20T11:03:18;101465.56;;;5.22;66.14
4745;BME280;2386;42.138;24.746;2022-12-20T11:05:59;101469.88;;;5.15;66.14
4745;BME280;2386;42.138;24.746;2022-12-20T11:08:27;101465.72;;;5.20;63.73
4745;BME280;2386;42.138;24.746;2022-12-20T11:11:30;101459.31;;;5.04;65.34
4745;BME280;2386;42.138;24.746;2022-12-20T11:14:13;101454.94;;;5.20;67.18
4745;BME280;2386;42.138;24.746;2022-12-20T11:16:39;101453.66;;;5.24;64.50
4745;BME280;2386;42.138;24.746;2022-12-20T11:19:14;101441.00;;;5.17;65.47
4745;BME280;2386;42.138;24.746;2022-12-20T11:30:06;101430.25;;;5.52;62.45
4745;BME280;2386;42.138;24.746;2022-12-20T11:41:04;101407.78;;;5.61;59.46
4745;BME280;2386;42.138;24.746;2022-12-20T11:49:48;101395.34;;;5.43;61.85
4745;BME280;2386;42.138;24.746;2022-12-20T11:54:46;101380.09;;;5.34;62.10
4745;BME280;2386;42.138;24.746;2022-12-20T11:57:22;101377.81;;;5.03;63.12
4745;BME280;2386;42.138;24.746;2022-12-20T11:59:59;101370.81;;;5.28;63.51
4745;BME280;2386;42.138;24.746;2022-12-20T12:02:44;101359.28;;;5.36;62.83
4745;BME280;2386;42.138;24.746;2022-12-20T12:05:35;101363.44;;;5.48;62.04
4745;BME280;2386;42.138;24.746;2022-12-20T12:08:10;101343.28;;;5.52;63.43
4745;BME280;2386;42.138;24.746;2022-12-20T12:10:41;101354.47;;;5.83;64.20
4745;BME280;2386;42.138;24.746;2022-12-20T12:18:29;101332.88;;;5.57;64.41
4745;BME280;2386;42.138;24.746;2022-12-20T12:21:15;101334.66;;;5.66;65.41
4745;BME280;2386;42.138;24.746;2022-12-20T12:26:25;101335.41;;;5.76;65.82
4745;BME280;2386;42.138;24.746;2022-12-20T12:29:02;101323.25;;;5.90;64.44
4745;BME280;2386;42.138;24.746;2022-12-20T12:45:41;101334.63;;;6.10;60.94
4745;BME280;2386;42.138;24.746;2022-12-20T12:50:46;101336.56;;;5.91;60.95
4745;BME280;2386;42.138;24.746;2022-12-20T12:55:47;101332.69;;;5.94;63.23
4745;BME280;2386;42.138;24.746;2022-12-20T13:03:35;101321.41;;;6.24;61.09
4745;BME280;2386;42.138;24.746;2022-12-20T13:19:36;101327.50;;;6.01;62.61
4745;BME280;2386;42.138;24.746;2022-12-20T13:24:58;101321.63;;;5.79;61.62
4745;BME280;2386;42.138;24.746;2022-12-20T13:27:30;101318.72;;;5.90;61.55
4745;BME280;2386;42.138;24.746;2022-12-20T13:38:04;101313.88;;;5.76;62.81
4745;BME280;2386;42.138;24.746;2022-12-20T13:40:43;101313.66;;;5.70;62.70
4745;BME280;2386;42.138;24.746;2022-12-20T13:43:34;101309.03;;;5.62;62.16
4745;BME280;2386;42.138;24.746;2022-12-20T13:48:32;101312.44;;;5.64;61.60
4745;BME280;2386;42.138;24.746;2022-12-20T13:51:04;101310.47;;;5.74;62.17
4745;BME280;2386;42.138;24.746;2022-12-20T13:53:30;101316.28;;;5.61;65.59
4745;BME280;2386;42.138;24.746;2022-12-20T13:55:57;101309.25;;;5.69;65.36
4745;BME280;2386;42.138;24.746;2022-12-20T13:58:26;101315.72;;;5.76;67.39
4745;BME280;2386;42.138;24.746;2022-12-20T14:00:53;101307.19;;;5.63;67.13
4745;BME280;2386;42.138;24.746;2022-12-20T14:03:25;101307.66;;;5.58;62.65
4745;BME280;2386;42.138;24.746;2022-12-20T14:06:00;101315.06;;;5.56;64.05
4745;BME280;2386;42.138;24.746;2022-12-20T14:08:38;101297.44;;;5.61;62.70
4745;BME280;2386;42.138;24.746;2022-12-20T14:11:21;101303.66;;;5.62;64.93
4745;BME280;2386;42.138;24.746;2022-12-20T14:16:18;101299.06;;;5.54;62.91
4745;BME280;2386;42.138;24.746;2022-12-20T14:19:12;101293.69;;;5.54;65.94
4745;BME280;2386;42.138;24.746;2022-12-20T14:21:35;101293.78;;;5.45;67.46
4745;BME280;2386;42.138;24.746;2022-12-20T14:24:04;101300.31;;;5.42;64.87
4745;BME280;2386;42.138;24.746;2022-12-20T14:26:38;101299.22;;;5.53;65.49
4745;BME280;2386;42.138;24.746;2022-12-20T14:29:10;101293.09;;;5.43;66.02
4745;BME280;2386;42.138;24.746;2022-12-20T14:31:42;101292.84;;;5.36;66.68
4745;BME280;2386;42.138;24.746;2022-12-20T14:36:41;101291.31;;;5.34;67.00
4745;BME280;2386;42.138;24.746;2022-12-20T14:44:31;101284.75;;;5.54;68.34
4745;BME280;2386;42.138;24.746;2022-12-20T14:46:59;101279.00;;;5.49;69.22
4745;BME280;2386;42.138;24.746;2022-12-20T14:49:32;101273.88;;;5.38;65.72
4745;BME280;2386;42.138;24.746;2022-12-20T14:54:44;101280.50;;;5.25;67.19
4745;BME280;2386;42.138;24.746;2022-12-20T15:00:28;101274.16;;;5.09;69.42
4745;BME280;2386;42.138;24.746;2022-12-20T15:08:31;101272.53;;;4.98;71.32
4745;BME280;2386;42.138;24.746;2022-12-20T15:11:15;101272.00;;;4.94;71.05
4745;BME280;2386;42.138;24.746;2022-12-20T15:13:46;101263.16;;;5.02;71.48
4745;BME280;2386;42.138;24.746;2022-12-20T15:16:29;101255.03;;;5.12;70.10
4745;BME280;2386;42.138;24.746;2022-12-20T15:18:59;101241.34;;;5.05;70.77
4745;BME280;2386;42.138;24.746;2022-12-20T15:21:35;101256.56;;;5.14;70.66
4745;BME280;2386;42.138;24.746;2022-12-20T15:24:04;101240.19;;;4.90;72.37
4745;BME280;2386;42.138;24.746;2022-12-20T15:26:33;101242.50;;;5.03;72.65
4745;BME280;2386;42.138;24.746;2022-12-20T15:28:59;101240.34;;;4.88;72.83
4745;BME280;2386;42.138;24.746;2022-12-20T15:31:26;101248.28;;;4.90;73.69
4745;BME280;2386;42.138;24.746;2022-12-20T15:33:52;101246.81;;;4.95;73.13
4745;BME280;2386;42.138;24.746;2022-12-20T15:36:28;101246.88;;;5.04;73.11
4745;BME280;2386;42.138;24.746;2022-12-20T15:38:55;101259.88;;;5.08;72.98
4745;BME280;2386;42.138;24.746;2022-12-20T15:41:26;101257.78;;;5.02;73.02
4745;BME280;2386;42.138;24.746;2022-12-20T15:43:57;101247.88;;;5.03;74.22
4745;BME280;2386;42.138;24.746;2022-12-20T15:46:24;101255.78;;;5.04;73.48
4745;BME280;2386;42.138;24.746;2022-12-20T15:48:51;101255.34;;;5.09;75.07
4745;BME280;2386;42.138;24.746;2022-12-20T15:51:30;101247.72;;;5.04;75.47
4745;BME280;2386;42.138;24.746;2022-12-20T15:53:57;101256.50;;;4.88;75.50
4745;BME280;2386;42.138;24.746;2022-12-20T15:56:24;101249.50;;;4.78;74.29
4745;BME280;2386;42.138;24.746;2022-12-20T15:58:49;101250.94;;;4.72;76.64
4745;BME280;2386;42.138;24.746;2022-12-20T16:01:35;101250.56;;;4.67;77.28
4745;BME280;2386;42.138;24.746;2022-12-20T16:04:02;101249.56;;;4.86;74.83
4745;BME280;2386;42.138;24.746;2022-12-20T16:06:27;101251.25;;;5.05;74.12
4745;BME280;2386;42.138;24.746;2022-12-20T16:08:53;101246.66;;;4.79;76.21
4745;BME280;2386;42.138;24.746;2022-12-20T16:11:21;101230.13;;;4.56;78.20
4745;BME280;2386;42.138;24.746;2022-12-20T16:13:47;101230.88;;;4.49;79.89
4745;BME280;2386;42.138;24.746;2022-12-20T16:16:18;101235.94;;;4.34;80.77
4745;BME280;2386;42.138;24.746;2022-12-20T16:18:44;101235.56;;;4.29;81.86
4745;BME280;2386;42.138;24.746;2022-12-20T16:21:17;101230.03;;;4.31;82.17